sensor_id;sensor_type;location;lat;lon;timestamp;temperature;humidity
18291;DHT22;9271;48.590;8.866;2024-01-15T00:00:50;1.60;97.50
18291;DHT22;9271;48.590;8.866;2024-01-15T00:03:17;1.40;97.70
18291;DHT22;9271;48.590;8.866;2024-01-15T00:05:45;1.60;97.20
18291;DHT22;9271;48.590;8.866;2024-01-15T00:08:11;1.30;97.60
18291;DHT22;9271;48.590;8.866;2024-01-15T00:10:38;1.30;98.10
18291;DHT22;9271;48.590;8.866;2024-01-15T00:13:06;1.40;98.00
18291;DHT22;9271;48.590;8.866;2024-01-15T00:15:32;1.40;98.10
18291;DHT22;9271;48.590;8.866;2024-01-15T00:17:59;1.60;97.60
18291;DHT22;9271;48.590;8.866;2024-01-15T00:20:25;1.50;97.70
18291;DHT22;9271;48.590;8.866;2024-01-15T00:22:53;1.60;97.70
18291;DHT22;9271;48.590;8.866;2024-01-15T00:25:20;1.80;97.50
18291;DHT22;9271;48.590;8.866;2024-01-15T00:27:47;1.70;97.30
18291;DHT22;9271;48.590;8.866;2024-01-15T00:30:14;1.60;97.60
18291;DHT22;9271;48.590;8.866;2024-01-15T00:32:40;1.70;97.60
18291;DHT22;9271;48.590;8.866;2024-01-15T00:35:07;1.80;97.00
18291;DHT22;9271;48.590;8.866;2024-01-15T00:37:34;1.60;97.10
18291;DHT22;9271;48.590;8.866;2024-01-15T00:40:03;1.50;97.50
18291;DHT22;9271;48.590;8.866;2024-01-15T00:42:29;1.00;98.40
18291;DHT22;9271;48.590;8.866;2024-01-15T00:44:56;1.10;98.30
18291;DHT22;9271;48.590;8.866;2024-01-15T00:47:23;1.10;98.60
18291;DHT22;9271;48.590;8.866;2024-01-15T00:49:49;1.00;98.90
18291;DHT22;9271;48.590;8.866;2024-01-15T00:52:16;1.10;98.90
18291;DHT22;9271;48.590;8.866;2024-01-15T00:54:42;1.10;98.70
18291;DHT22;9271;48.590;8.866;2024-01-15T00:57:10;1.20;98.70
18291;DHT22;9271;48.590;8.866;2024-01-15T00:59:38;1.30;98.60
18291;DHT22;9271;48.590;8.866;2024-01-15T01:02:04;1.20;98.90
18291;DHT22;9271;48.590;8.866;2024-01-15T01:04:31;1.00;99.20
18291;DHT22;9271;48.590;8.866;2024-01-15T01:06:58;1.00;99.20
18291;DHT22;9271;48.590;8.866;2024-01-15T01:09:24;1.10;99.30
18291;DHT22;9271;48.590;8.866;2024-01-15T01:11:54;1.30;99.00
18291;DHT22;9271;48.590;8.866;2024-01-15T01:14:22;1.00;99.70
18291;DHT22;9271;48.590;8.866;2024-01-15T01:16:49;1.00;99.90
18291;DHT22;9271;48.590;8.866;2024-01-15T01:19:15;1.00;99.70
18291;DHT22;9271;48.590;8.866;2024-01-15T01:21:42;1.00;99.90
18291;DHT22;9271;48.590;8.866;2024-01-15T01:24:09;1.10;99.90
18291;DHT22;9271;48.590;8.866;2024-01-15T01:26:35;1.10;99.90
18291;DHT22;9271;48.590;8.866;2024-01-15T01:29:02;1.10;99.90
18291;DHT22;9271;48.590;8.866;2024-01-15T01:31:30;0.90;99.90
18291;DHT22;9271;48.590;8.866;2024-01-15T01:33:57;0.80;99.90
18291;DHT22;9271;48.590;8.866;2024-01-15T01:36:23;0.70;99.90
18291;DHT22;9271;48.590;8.866;2024-01-15T01:38:50;0.40;99.90
18291;DHT22;9271;48.590;8.866;2024-01-15T01:41:16;0.40;99.90
18291;DHT22;9271;48.590;8.866;2024-01-15T01:43:43;0.40;99.90
18291;DHT22;9271;48.590;8.866;2024-01-15T01:46:10;0.30;99.90
18291;DHT22;9271;48.590;8.866;2024-01-15T01:48:39;0.40;99.90
18291;DHT22;9271;48.590;8.866;2024-01-15T01:51:06;0.20;99.90
18291;DHT22;9271;48.590;8.866;2024-01-15T01:53:35;0.30;99.90
18291;DHT22;9271;48.590;8.866;2024-01-15T01:56:03;0.40;99.90
18291;DHT22;9271;48.590;8.866;2024-01-15T01:58:32;0.50;99.90
18291;DHT22;9271;48.590;8.866;2024-01-15T02:00:59;0.50;99.90
18291;DHT22;9271;48.590;8.866;2024-01-15T02:03:26;0.40;99.90
18291;DHT22;9271;48.590;8.866;2024-01-15T02:05:55;0.30;99.90
18291;DHT22;9271;48.590;8.866;2024-01-15T02:08:22;0.00;99.90
18291;DHT22;9271;48.590;8.866;2024-01-15T02:10:49;-0.10;99.90
18291;DHT22;9271;48.590;8.866;2024-01-15T02:13:16;0.00;99.90
18291;DHT22;9271;48.590;8.866;2024-01-15T02:15:43;0.00;99.90
18291;DHT22;9271;48.590;8.866;2024-01-15T02:18:09;-0.10;99.90
18291;DHT22;9271;48.590;8.866;2024-01-15T02:20:36;-0.10;99.90
18291;DHT22;9271;48.590;8.866;2024-01-15T02:23:09;-0.20;99.90
18291;DHT22;9271;48.590;8.866;2024-01-15T02:25:37;-0.10;99.90
18291;DHT22;9271;48.590;8.866;2024-01-15T02:28:06;-0.30;99.90
18291;DHT22;9271;48.590;8.866;2024-01-15T02:30:34;-0.10;99.90
18291;DHT22;9271;48.590;8.866;2024-01-15T02:33:03;0.00;99.90
18291;DHT22;9271;48.590;8.866;2024-01-15T02:35:30;-0.10;99.90
18291;DHT22;9271;48.590;8.866;2024-01-15T02:37:56;-0.10;99.90
18291;DHT22;9271;48.590;8.866;2024-01-15T02:40:25;0.10;99.90
18291;DHT22;9271;48.590;8.866;2024-01-15T02:42:51;0.10;99.90
18291;DHT22;9271;48.590;8.866;2024-01-15T02:45:19;-0.10;99.90
18291;DHT22;9271;48.590;8.866;2024-01-15T02:47:46;-0.20;99.90
18291;DHT22;9271;48.590;8.866;2024-01-15T02:50:12;-0.20;99.90
18291;DHT22;9271;48.590;8.866;2024-01-15T02:52:39;-0.30;99.90
18291;DHT22;9271;48.590;8.866;2024-01-15T02:55:06;-0.40;99.90
18291;DHT22;9271;48.590;8.866;2024-01-15T02:57:34;-0.40;99.90
18291;DHT22;9271;48.590;8.866;2024-01-15T03:00:01;-0.50;99.90
18291;DHT22;9271;48.590;8.866;2024-01-15T03:02:29;-0.50;99.90
18291;DHT22;9271;48.590;8.866;2024-01-15T03:04:56;-0.30;99.90
18291;DHT22;9271;48.590;8.866;2024-01-15T03:07:23;-0.10;99.90
18291;DHT22;9271;48.590;8.866;2024-01-15T03:09:50;0.00;99.90
18291;DHT22;9271;48.590;8.866;2024-01-15T03:12:16;0.00;99.90
18291;DHT22;9271;48.590;8.866;2024-01-15T03:14:45;0.30;99.90
18291;DHT22;9271;48.590;8.866;2024-01-15T03:17:12;0.10;99.90
18291;DHT22;9271;48.590;8.866;2024-01-15T03:19:38;0.30;99.90
18291;DHT22;9271;48.590;8.866;2024-01-15T03:22:05;0.60;99.90
18291;DHT22;9271;48.590;8.866;2024-01-15T03:24:34;0.70;99.90
18291;DHT22;9271;48.590;8.866;2024-01-15T03:27:00;0.70;99.90
18291;DHT22;9271;48.590;8.866;2024-01-15T03:29:27;0.90;99.90
18291;DHT22;9271;48.590;8.866;2024-01-15T03:31:55;0.70;99.90
18291;DHT22;9271;48.590;8.866;2024-01-15T03:34:22;0.60;99.90
18291;DHT22;9271;48.590;8.866;2024-01-15T03:36:48;0.90;99.90
18291;DHT22;9271;48.590;8.866;2024-01-15T03:39:15;1.30;99.90
18291;DHT22;9271;48.590;8.866;2024-01-15T03:41:42;1.40;99.90
18291;DHT22;9271;48.590;8.866;2024-01-15T03:44:08;1.50;99.90
18291;DHT22;9271;48.590;8.866;2024-01-15T03:46:35;1.60;99.90
18291;DHT22;9271;48.590;8.866;2024-01-15T03:49:03;1.60;99.90
18291;DHT22;9271;48.590;8.866;2024-01-15T03:51:30;1.20;99.90
18291;DHT22;9271;48.590;8.866;2024-01-15T03:53:56;0.90;99.90
18291;DHT22;9271;48.590;8.866;2024-01-15T03:56:23;1.00;99.90
18291;DHT22;9271;48.590;8.866;2024-01-15T03:58:50;1.30;99.90
18291;DHT22;9271;48.590;8.866;2024-01-15T04:01:16;1.30;99.90
18291;DHT22;9271;48.590;8.866;2024-01-15T04:03:43;1.10;99.90
18291;DHT22;9271;48.590;8.866;2024-01-15T04:06:11;1.20;99.90
18291;DHT22;9271;48.590;8.866;2024-01-15T04:08:37;1.10;99.90
18291;DHT22;9271;48.590;8.866;2024-01-15T04:11:04;0.80;99.90
18291;DHT22;9271;48.590;8.866;2024-01-15T04:13:32;0.70;99.90
18291;DHT22;9271;48.590;8.866;2024-01-15T04:16:00;0.60;99.90
18291;DHT22;9271;48.590;8.866;2024-01-15T04:18:27;0.70;99.90
18291;DHT22;9271;48.590;8.866;2024-01-15T04:20:53;0.90;99.90
18291;DHT22;9271;48.590;8.866;2024-01-15T04:23:21;1.00;99.90
18291;DHT22;9271;48.590;8.866;2024-01-15T04:25:48;1.20;99.90
18291;DHT22;9271;48.590;8.866;2024-01-15T04:28:15;1.00;99.90
18291;DHT22;9271;48.590;8.866;2024-01-15T04:30:41;1.30;99.90
18291;DHT22;9271;48.590;8.866;2024-01-15T04:33:08;1.70;99.90
18291;DHT22;9271;48.590;8.866;2024-01-15T04:35:35;1.90;99.90
18291;DHT22;9271;48.590;8.866;2024-01-15T04:38:01;1.60;99.90
18291;DHT22;9271;48.590;8.866;2024-01-15T04:40:29;1.60;99.90
18291;DHT22;9271;48.590;8.866;2024-01-15T04:42:56;1.70;99.90
18291;DHT22;9271;48.590;8.866;2024-01-15T04:45:22;1.80;99.90
18291;DHT22;9271;48.590;8.866;2024-01-15T04:47:53;1.90;99.90
18291;DHT22;9271;48.590;8.866;2024-01-15T04:50:21;1.50;99.90
18291;DHT22;9271;48.590;8.866;2024-01-15T04:52:47;1.60;99.90
18291;DHT22;9271;48.590;8.866;2024-01-15T04:55:14;1.60;99.90
18291;DHT22;9271;48.590;8.866;2024-01-15T04:57:42;1.80;99.90
18291;DHT22;9271;48.590;8.866;2024-01-15T05:00:10;1.80;99.90
18291;DHT22;9271;48.590;8.866;2024-01-15T05:02:37;1.90;99.90
18291;DHT22;9271;48.590;8.866;2024-01-15T05:05:04;2.00;99.90
18291;DHT22;9271;48.590;8.866;2024-01-15T05:07:31;1.40;99.90
18291;DHT22;9271;48.590;8.866;2024-01-15T05:09:57;1.40;99.90
18291;DHT22;9271;48.590;8.866;2024-01-15T05:12:24;1.40;99.90
18291;DHT22;9271;48.590;8.866;2024-01-15T05:14:52;1.20;99.90
18291;DHT22;9271;48.590;8.866;2024-01-15T05:17:18;1.40;99.90
18291;DHT22;9271;48.590;8.866;2024-01-15T05:19:45;1.10;99.90
18291;DHT22;9271;48.590;8.866;2024-01-15T05:22:12;0.90;99.90
18291;DHT22;9271;48.590;8.866;2024-01-15T05:24:38;1.00;99.90
18291;DHT22;9271;48.590;8.866;2024-01-15T05:27:05;1.60;99.90
18291;DHT22;9271;48.590;8.866;2024-01-15T05:29:31;1.60;99.90
18291;DHT22;9271;48.590;8.866;2024-01-15T05:31:59;1.30;99.90
18291;DHT22;9271;48.590;8.866;2024-01-15T05:34:26;1.00;99.90
18291;DHT22;9271;48.590;8.866;2024-01-15T05:36:53;0.80;99.90
18291;DHT22;9271;48.590;8.866;2024-01-15T05:39:19;0.60;99.90
18291;DHT22;9271;48.590;8.866;2024-01-15T05:41:46;0.60;99.90
18291;DHT22;9271;48.590;8.866;2024-01-15T05:44:12;0.80;99.90
18291;DHT22;9271;48.590;8.866;2024-01-15T05:46:39;1.00;99.90
18291;DHT22;9271;48.590;8.866;2024-01-15T05:49:07;1.10;99.90
18291;DHT22;9271;48.590;8.866;2024-01-15T05:51:34;1.10;99.90
18291;DHT22;9271;48.590;8.866;2024-01-15T05:54:01;1.00;99.90
18291;DHT22;9271;48.590;8.866;2024-01-15T05:56:27;1.00;99.90
18291;DHT22;9271;48.590;8.866;2024-01-15T05:58:54;0.60;99.90
18291;DHT22;9271;48.590;8.866;2024-01-15T06:01:21;0.60;99.90
18291;DHT22;9271;48.590;8.866;2024-01-15T06:03:47;0.80;99.90
18291;DHT22;9271;48.590;8.866;2024-01-15T06:06:15;0.90;99.90
18291;DHT22;9271;48.590;8.866;2024-01-15T06:08:42;0.90;99.90
18291;DHT22;9271;48.590;8.866;2024-01-15T06:11:08;1.00;99.90
18291;DHT22;9271;48.590;8.866;2024-01-15T06:13:35;0.70;99.90
18291;DHT22;9271;48.590;8.866;2024-01-15T06:16:02;0.70;99.90
18291;DHT22;9271;48.590;8.866;2024-01-15T06:18:28;0.70;99.90
18291;DHT22;9271;48.590;8.866;2024-01-15T06:20:55;0.70;99.90
18291;DHT22;9271;48.590;8.866;2024-01-15T06:23:23;0.80;99.90
18291;DHT22;9271;48.590;8.866;2024-01-15T06:25:50;1.00;99.90
18291;DHT22;9271;48.590;8.866;2024-01-15T06:28:16;0.90;99.90
18291;DHT22;9271;48.590;8.866;2024-01-15T06:30:43;1.00;99.90
18291;DHT22;9271;48.590;8.866;2024-01-15T06:33:09;0.70;99.90
18291;DHT22;9271;48.590;8.866;2024-01-15T06:35:36;0.80;99.90
18291;DHT22;9271;48.590;8.866;2024-01-15T06:38:03;0.80;99.90
18291;DHT22;9271;48.590;8.866;2024-01-15T06:40:31;0.70;99.90
18291;DHT22;9271;48.590;8.866;2024-01-15T06:42:57;0.60;99.90
18291;DHT22;9271;48.590;8.866;2024-01-15T06:45:24;0.70;99.90
18291;DHT22;9271;48.590;8.866;2024-01-15T06:47:51;0.70;99.90
18291;DHT22;9271;48.590;8.866;2024-01-15T06:50:17;0.70;99.90
18291;DHT22;9271;48.590;8.866;2024-01-15T06:52:44;0.60;99.90
18291;DHT22;9271;48.590;8.866;2024-01-15T06:55:11;0.70;99.90
18291;DHT22;9271;48.590;8.866;2024-01-15T06:57:39;0.60;99.90
18291;DHT22;9271;48.590;8.866;2024-01-15T07:00:06;0.70;99.90
18291;DHT22;9271;48.590;8.866;2024-01-15T07:02:34;0.70;99.90
18291;DHT22;9271;48.590;8.866;2024-01-15T07:05:00;0.90;99.90
18291;DHT22;9271;48.590;8.866;2024-01-15T07:07:27;0.90;99.90
18291;DHT22;9271;48.590;8.866;2024-01-15T07:09:55;1.20;99.90
18291;DHT22;9271;48.590;8.866;2024-01-15T07:12:22;1.10;99.90
18291;DHT22;9271;48.590;8.866;2024-01-15T07:14:50;1.00;99.90
18291;DHT22;9271;48.590;8.866;2024-01-15T07:17:16;0.90;99.90
18291;DHT22;9271;48.590;8.866;2024-01-15T07:19:43;0.80;99.90
18291;DHT22;9271;48.590;8.866;2024-01-15T07:22:09;0.70;99.90
18291;DHT22;9271;48.590;8.866;2024-01-15T07:24:36;1.00;99.90
18291;DHT22;9271;48.590;8.866;2024-01-15T07:27:03;1.20;99.90
18291;DHT22;9271;48.590;8.866;2024-01-15T07:29:30;1.20;99.90
18291;DHT22;9271;48.590;8.866;2024-01-15T07:31:59;1.50;99.90
18291;DHT22;9271;48.590;8.866;2024-01-15T07:34:26;1.70;99.90
18291;DHT22;9271;48.590;8.866;2024-01-15T07:36:53;1.60;99.90
18291;DHT22;9271;48.590;8.866;2024-01-15T07:39:19;1.30;99.90
18291;DHT22;9271;48.590;8.866;2024-01-15T07:41:48;1.10;99.90
18291;DHT22;9271;48.590;8.866;2024-01-15T07:44:14;1.20;99.90
18291;DHT22;9271;48.590;8.866;2024-01-15T07:46:44;1.20;99.90
18291;DHT22;9271;48.590;8.866;2024-01-15T07:49:12;1.10;99.90
18291;DHT22;9271;48.590;8.866;2024-01-15T07:51:39;1.10;99.90
18291;DHT22;9271;48.590;8.866;2024-01-15T07:54:06;1.30;99.90
18291;DHT22;9271;48.590;8.866;2024-01-15T07:56:33;1.30;99.90
18291;DHT22;9271;48.590;8.866;2024-01-15T07:59:00;1.30;99.90
18291;DHT22;9271;48.590;8.866;2024-01-15T08:01:26;1.60;99.90
18291;DHT22;9271;48.590;8.866;2024-01-15T08:03:53;1.60;99.90
18291;DHT22;9271;48.590;8.866;2024-01-15T08:06:22;1.60;99.90
18291;DHT22;9271;48.590;8.866;2024-01-15T08:08:47;1.40;99.90
18291;DHT22;9271;48.590;8.866;2024-01-15T08:11:14;1.50;99.90
18291;DHT22;9271;48.590;8.866;2024-01-15T08:13:40;1.30;99.90
18291;DHT22;9271;48.590;8.866;2024-01-15T08:16:07;1.30;99.90
18291;DHT22;9271;48.590;8.866;2024-01-15T08:18:34;1.40;99.90
18291;DHT22;9271;48.590;8.866;2024-01-15T08:21:01;1.30;99.80
18291;DHT22;9271;48.590;8.866;2024-01-15T08:23:29;1.50;99.90
18291;DHT22;9271;48.590;8.866;2024-01-15T08:25:56;1.50;99.90
18291;DHT22;9271;48.590;8.866;2024-01-15T08:28:23;1.80;99.40
18291;DHT22;9271;48.590;8.866;2024-01-15T08:30:50;1.50;99.80
18291;DHT22;9271;48.590;8.866;2024-01-15T08:33:16;1.50;99.90
18291;DHT22;9271;48.590;8.866;2024-01-15T08:35:43;1.60;99.90
18291;DHT22;9271;48.590;8.866;2024-01-15T08:38:11;1.90;99.10
18291;DHT22;9271;48.590;8.866;2024-01-15T08:40:39;1.90;99.10
18291;DHT22;9271;48.590;8.866;2024-01-15T08:43:05;1.60;99.20
18291;DHT22;9271;48.590;8.866;2024-01-15T08:45:33;1.10;99.70
18291;DHT22;9271;48.590;8.866;2024-01-15T08:47:59;1.20;99.90
18291;DHT22;9271;48.590;8.866;2024-01-15T08:50:26;1.40;99.50
18291;DHT22;9271;48.590;8.866;2024-01-15T08:52:53;1.60;99.30
18291;DHT22;9271;48.590;8.866;2024-01-15T08:55:20;1.70;99.10
18291;DHT22;9271;48.590;8.866;2024-01-15T08:57:49;1.70;99.30
18291;DHT22;9271;48.590;8.866;2024-01-15T09:00:16;1.40;99.40
18291;DHT22;9271;48.590;8.866;2024-01-15T09:02:44;1.30;99.80
18291;DHT22;9271;48.590;8.866;2024-01-15T09:05:11;1.30;99.90
18291;DHT22;9271;48.590;8.866;2024-01-15T09:07:38;1.80;99.50
18291;DHT22;9271;48.590;8.866;2024-01-15T09:10:06;2.00;98.90
18291;DHT22;9271;48.590;8.866;2024-01-15T09:12:33;2.20;98.70
18291;DHT22;9271;48.590;8.866;2024-01-15T09:15:00;2.10;98.90
18291;DHT22;9271;48.590;8.866;2024-01-15T09:17:29;2.10;98.90
18291;DHT22;9271;48.590;8.866;2024-01-15T09:19:56;2.20;98.80
18291;DHT22;9271;48.590;8.866;2024-01-15T09:22:23;2.40;98.30
18291;DHT22;9271;48.590;8.866;2024-01-15T09:24:49;2.00;98.80
18291;DHT22;9271;48.590;8.866;2024-01-15T09:27:16;2.10;98.70
18291;DHT22;9271;48.590;8.866;2024-01-15T09:29:43;2.70;97.80
18291;DHT22;9271;48.590;8.866;2024-01-15T09:32:12;3.00;97.40
18291;DHT22;9271;48.590;8.866;2024-01-15T09:34:39;2.70;97.10
18291;DHT22;9271;48.590;8.866;2024-01-15T09:37:06;2.90;97.20
18291;DHT22;9271;48.590;8.866;2024-01-15T09:39:33;2.90;97.10
18291;DHT22;9271;48.590;8.866;2024-01-15T09:42:00;2.60;97.50
18291;DHT22;9271;48.590;8.866;2024-01-15T09:44:27;2.40;97.80
18291;DHT22;9271;48.590;8.866;2024-01-15T09:46:55;2.30;97.90
18291;DHT22;9271;48.590;8.866;2024-01-15T09:49:23;2.20;98.00
18291;DHT22;9271;48.590;8.866;2024-01-15T09:51:50;2.30;98.10
18291;DHT22;9271;48.590;8.866;2024-01-15T09:54:17;2.10;98.30
18291;DHT22;9271;48.590;8.866;2024-01-15T09:56:45;2.10;98.20
18291;DHT22;9271;48.590;8.866;2024-01-15T09:59:14;2.30;98.30
18291;DHT22;9271;48.590;8.866;2024-01-15T10:01:43;2.10;98.40
18291;DHT22;9271;48.590;8.866;2024-01-15T10:04:10;2.10;98.40
18291;DHT22;9271;48.590;8.866;2024-01-15T10:06:39;2.00;98.80
18291;DHT22;9271;48.590;8.866;2024-01-15T10:09:12;2.20;98.50
18291;DHT22;9271;48.590;8.866;2024-01-15T10:11:40;1.90;99.00
18291;DHT22;9271;48.590;8.866;2024-01-15T10:14:08;2.10;98.80
18291;DHT22;9271;48.590;8.866;2024-01-15T10:16:37;2.10;99.10
18291;DHT22;9271;48.590;8.866;2024-01-15T10:19:03;2.30;99.10
18291;DHT22;9271;48.590;8.866;2024-01-15T10:21:32;2.30;98.60
18291;DHT22;9271;48.590;8.866;2024-01-15T10:24:02;2.40;98.80
18291;DHT22;9271;48.590;8.866;2024-01-15T10:26:29;2.60;98.60
18291;DHT22;9271;48.590;8.866;2024-01-15T10:28:56;2.80;98.20
18291;DHT22;9271;48.590;8.866;2024-01-15T10:31:25;2.80;98.20
18291;DHT22;9271;48.590;8.866;2024-01-15T10:33:52;2.70;98.50
18291;DHT22;9271;48.590;8.866;2024-01-15T10:36:19;2.80;98.50
18291;DHT22;9271;48.590;8.866;2024-01-15T10:38:46;2.70;98.70
18291;DHT22;9271;48.590;8.866;2024-01-15T10:41:14;2.70;98.90
18291;DHT22;9271;48.590;8.866;2024-01-15T10:43:41;2.60;99.30
18291;DHT22;9271;48.590;8.866;2024-01-15T10:46:08;2.00;99.80
18291;DHT22;9271;48.590;8.866;2024-01-15T10:48:36;2.00;99.90
18291;DHT22;9271;48.590;8.866;2024-01-15T10:51:02;2.20;99.90
18291;DHT22;9271;48.590;8.866;2024-01-15T10:53:37;2.40;99.90
18291;DHT22;9271;48.590;8.866;2024-01-15T10:56:05;2.60;99.80
18291;DHT22;9271;48.590;8.866;2024-01-15T10:58:33;2.60;99.70
18291;DHT22;9271;48.590;8.866;2024-01-15T11:01:01;2.40;99.90
18291;DHT22;9271;48.590;8.866;2024-01-15T11:03:28;2.20;99.90
18291;DHT22;9271;48.590;8.866;2024-01-15T11:05:55;2.00;99.90
18291;DHT22;9271;48.590;8.866;2024-01-15T11:08:22;2.20;99.90
18291;DHT22;9271;48.590;8.866;2024-01-15T11:10:51;2.30;99.90
18291;DHT22;9271;48.590;8.866;2024-01-15T11:13:21;2.30;99.90
18291;DHT22;9271;48.590;8.866;2024-01-15T11:16:00;2.30;99.90
18291;DHT22;9271;48.590;8.866;2024-01-15T11:18:29;2.20;99.90
18291;DHT22;9271;48.590;8.866;2024-01-15T11:21:21;2.20;99.90
18291;DHT22;9271;48.590;8.866;2024-01-15T11:23:49;2.20;99.90
18291;DHT22;9271;48.590;8.866;2024-01-15T11:26:34;2.30;99.90
18291;DHT22;9271;48.590;8.866;2024-01-15T11:29:02;2.30;99.90
18291;DHT22;9271;48.590;8.866;2024-01-15T11:32:00;2.00;99.90
18291;DHT22;9271;48.590;8.866;2024-01-15T11:34:52;2.00;99.90
18291;DHT22;9271;48.590;8.866;2024-01-15T11:37:20;2.10;99.90
18291;DHT22;9271;48.590;8.866;2024-01-15T11:39:51;2.20;99.90
18291;DHT22;9271;48.590;8.866;2024-01-15T11:42:20;2.10;99.90
18291;DHT22;9271;48.590;8.866;2024-01-15T11:44:47;1.90;99.90
18291;DHT22;9271;48.590;8.866;2024-01-15T11:47:16;1.90;99.90
18291;DHT22;9271;48.590;8.866;2024-01-15T11:49:59;2.20;99.90
18291;DHT22;9271;48.590;8.866;2024-01-15T11:52:33;2.20;99.90
18291;DHT22;9271;48.590;8.866;2024-01-15T11:55:12;2.20;99.90
18291;DHT22;9271;48.590;8.866;2024-01-15T11:57:45;2.00;99.90
18291;DHT22;9271;48.590;8.866;2024-01-15T12:00:12;1.80;99.90
18291;DHT22;9271;48.590;8.866;2024-01-15T12:02:41;1.70;99.90
18291;DHT22;9271;48.590;8.866;2024-01-15T12:05:08;2.00;99.90
18291;DHT22;9271;48.590;8.866;2024-01-15T12:07:35;2.00;99.90
18291;DHT22;9271;48.590;8.866;2024-01-15T12:10:02;2.10;99.90
18291;DHT22;9271;48.590;8.866;2024-01-15T12:12:37;1.90;99.90
18291;DHT22;9271;48.590;8.866;2024-01-15T12:15:06;2.20;99.90
18291;DHT22;9271;48.590;8.866;2024-01-15T12:17:33;2.00;99.90
18291;DHT22;9271;48.590;8.866;2024-01-15T12:20:00;2.10;99.90
18291;DHT22;9271;48.590;8.866;2024-01-15T12:22:28;2.10;99.90
18291;DHT22;9271;48.590;8.866;2024-01-15T12:24:54;2.10;99.90
18291;DHT22;9271;48.590;8.866;2024-01-15T12:27:21;2.10;99.90
18291;DHT22;9271;48.590;8.866;2024-01-15T12:29:48;2.00;99.90
18291;DHT22;9271;48.590;8.866;2024-01-15T12:32:14;2.00;99.90
18291;DHT22;9271;48.590;8.866;2024-01-15T12:34:41;1.90;99.90
18291;DHT22;9271;48.590;8.866;2024-01-15T12:37:11;2.00;99.90
18291;DHT22;9271;48.590;8.866;2024-01-15T12:39:37;2.50;99.90
18291;DHT22;9271;48.590;8.866;2024-01-15T12:42:04;2.50;99.90
18291;DHT22;9271;48.590;8.866;2024-01-15T12:44:32;2.50;99.90
18291;DHT22;9271;48.590;8.866;2024-01-15T12:46:58;2.20;99.90
18291;DHT22;9271;48.590;8.866;2024-01-15T12:49:26;2.20;99.90
18291;DHT22;9271;48.590;8.866;2024-01-15T12:51:53;2.50;99.90
18291;DHT22;9271;48.590;8.866;2024-01-15T12:54:23;2.50;99.90
18291;DHT22;9271;48.590;8.866;2024-01-15T12:56:50;2.70;99.90
18291;DHT22;9271;48.590;8.866;2024-01-15T12:59:16;2.60;99.90
18291;DHT22;9271;48.590;8.866;2024-01-15T13:01:43;2.40;99.90
18291;DHT22;9271;48.590;8.866;2024-01-15T13:04:10;2.20;99.90
18291;DHT22;9271;48.590;8.866;2024-01-15T13:06:37;2.30;99.90
18291;DHT22;9271;48.590;8.866;2024-01-15T13:09:04;2.00;99.90
18291;DHT22;9271;48.590;8.866;2024-01-15T13:11:32;2.40;99.90
18291;DHT22;9271;48.590;8.866;2024-01-15T13:13:59;2.70;99.90
18291;DHT22;9271;48.590;8.866;2024-01-15T13:16:26;2.50;99.90
18291;DHT22;9271;48.590;8.866;2024-01-15T13:18:54;2.20;99.90
18291;DHT22;9271;48.590;8.866;2024-01-15T13:21:21;2.60;99.90
18291;DHT22;9271;48.590;8.866;2024-01-15T13:23:48;2.80;99.90
18291;DHT22;9271;48.590;8.866;2024-01-15T13:26:14;3.30;99.90
18291;DHT22;9271;48.590;8.866;2024-01-15T13:28:44;3.50;99.90
18291;DHT22;9271;48.590;8.866;2024-01-15T13:31:11;3.00;99.90
18291;DHT22;9271;48.590;8.866;2024-01-15T13:33:38;2.70;99.90
18291;DHT22;9271;48.590;8.866;2024-01-15T13:36:05;2.60;99.90
18291;DHT22;9271;48.590;8.866;2024-01-15T13:38:34;2.70;99.90
18291;DHT22;9271;48.590;8.866;2024-01-15T13:41:03;2.90;99.90
18291;DHT22;9271;48.590;8.866;2024-01-15T13:43:31;3.00;99.90
18291;DHT22;9271;48.590;8.866;2024-01-15T13:45:59;3.00;99.90
18291;DHT22;9271;48.590;8.866;2024-01-15T13:48:25;3.10;99.90
18291;DHT22;9271;48.590;8.866;2024-01-15T13:50:52;2.90;99.90
18291;DHT22;9271;48.590;8.866;2024-01-15T13:53:19;3.30;99.90
18291;DHT22;9271;48.590;8.866;2024-01-15T13:55:46;3.70;99.90
18291;DHT22;9271;48.590;8.866;2024-01-15T13:58:13;3.60;99.90
18291;DHT22;9271;48.590;8.866;2024-01-15T14:00:39;3.60;99.90
18291;DHT22;9271;48.590;8.866;2024-01-15T14:03:07;3.50;99.90
18291;DHT22;9271;48.590;8.866;2024-01-15T14:05:34;3.40;99.90
18291;DHT22;9271;48.590;8.866;2024-01-15T14:08:01;3.50;99.90
18291;DHT22;9271;48.590;8.866;2024-01-15T14:10:28;3.40;99.90
18291;DHT22;9271;48.590;8.866;2024-01-15T14:12:55;3.40;99.90
18291;DHT22;9271;48.590;8.866;2024-01-15T14:15:22;3.70;99.90
18291;DHT22;9271;48.590;8.866;2024-01-15T14:17:48;4.00;99.90
18291;DHT22;9271;48.590;8.866;2024-01-15T14:20:16;4.00;99.90
18291;DHT22;9271;48.590;8.866;2024-01-15T14:22:43;3.60;99.90
18291;DHT22;9271;48.590;8.866;2024-01-15T14:25:10;3.30;99.90
18291;DHT22;9271;48.590;8.866;2024-01-15T14:27:36;3.50;99.90
18291;DHT22;9271;48.590;8.866;2024-01-15T14:30:04;3.30;99.90
18291;DHT22;9271;48.590;8.866;2024-01-15T14:32:33;3.40;99.90
18291;DHT22;9271;48.590;8.866;2024-01-15T14:35:00;3.40;99.90
18291;DHT22;9271;48.590;8.866;2024-01-15T14:37:30;3.40;99.90
18291;DHT22;9271;48.590;8.866;2024-01-15T14:39:56;3.50;99.90
18291;DHT22;9271;48.590;8.866;2024-01-15T14:42:23;3.70;99.90
18291;DHT22;9271;48.590;8.866;2024-01-15T14:44:51;3.90;99.90
18291;DHT22;9271;48.590;8.866;2024-01-15T14:47:17;3.50;99.90
18291;DHT22;9271;48.590;8.866;2024-01-15T14:49:44;2.80;99.90
18291;DHT22;9271;48.590;8.866;2024-01-15T14:52:11;2.50;99.90
18291;DHT22;9271;48.590;8.866;2024-01-15T14:54:39;2.60;99.90
18291;DHT22;9271;48.590;8.866;2024-01-15T14:57:07;2.60;99.90
18291;DHT22;9271;48.590;8.866;2024-01-15T14:59:33;2.60;99.90
18291;DHT22;9271;48.590;8.866;2024-01-15T15:02:00;2.60;99.90
18291;DHT22;9271;48.590;8.866;2024-01-15T15:04:27;2.60;99.90
18291;DHT22;9271;48.590;8.866;2024-01-15T15:06:55;2.60;99.90
18291;DHT22;9271;48.590;8.866;2024-01-15T15:09:22;2.70;99.90
18291;DHT22;9271;48.590;8.866;2024-01-15T15:11:50;2.80;99.90
18291;DHT22;9271;48.590;8.866;2024-01-15T15:14:17;2.60;99.90
18291;DHT22;9271;48.590;8.866;2024-01-15T15:16:44;2.60;99.90
18291;DHT22;9271;48.590;8.866;2024-01-15T15:19:11;2.30;99.90
18291;DHT22;9271;48.590;8.866;2024-01-15T15:21:38;2.10;99.90
18291;DHT22;9271;48.590;8.866;2024-01-15T15:24:05;2.40;99.90
18291;DHT22;9271;48.590;8.866;2024-01-15T15:26:32;2.60;99.90
18291;DHT22;9271;48.590;8.866;2024-01-15T15:29:00;2.30;99.90
18291;DHT22;9271;48.590;8.866;2024-01-15T15:31:26;2.20;99.90
18291;DHT22;9271;48.590;8.866;2024-01-15T15:33:53;2.10;99.90
18291;DHT22;9271;48.590;8.866;2024-01-15T15:36:20;2.20;99.90
18291;DHT22;9271;48.590;8.866;2024-01-15T15:38:46;2.20;99.90
18291;DHT22;9271;48.590;8.866;2024-01-15T15:41:13;2.10;99.90
18291;DHT22;9271;48.590;8.866;2024-01-15T15:43:40;2.20;99.90
18291;DHT22;9271;48.590;8.866;2024-01-15T15:46:08;2.20;99.90
18291;DHT22;9271;48.590;8.866;2024-01-15T15:48:34;2.20;99.90
18291;DHT22;9271;48.590;8.866;2024-01-15T15:51:01;2.20;99.90
18291;DHT22;9271;48.590;8.866;2024-01-15T15:53:29;2.00;99.90
18291;DHT22;9271;48.590;8.866;2024-01-15T15:55:55;1.60;99.90
18291;DHT22;9271;48.590;8.866;2024-01-15T15:58:22;1.60;99.90
18291;DHT22;9271;48.590;8.866;2024-01-15T16:00:49;1.60;99.90